sensor_id;sensor_type;location;lat;lon;timestamp;P1;durP1;ratioP1;P2;durP2;ratioP2
6791;SDS011;3433;48.730;9.108;2022-10-15T00:02:40;1.67;;;0.70;;
6791;SDS011;3433;48.730;9.108;2022-10-15T00:05:28;1.40;;;0.70;;
6791;SDS011;3433;48.730;9.108;2022-10-15T00:08:15;1.50;;;0.60;;
6791;SDS011;3433;48.730;9.108;2022-10-15T00:11:06;0.60;;;0.50;;
6791;SDS011;3433;48.730;9.108;2022-10-15T00:13:56;1.20;;;0.53;;
6791;SDS011;3433;48.730;9.108;2022-10-15T00:16:45;0.80;;;0.60;;
6791;SDS011;3433;48.730;9.108;2022-10-15T00:19:32;3.73;;;0.80;;
6791;SDS011;3433;48.730;9.108;2022-10-15T00:22:21;1.07;;;0.70;;
6791;SDS011;3433;48.730;9.108;2022-10-15T00:25:08;1.00;;;0.67;;
6791;SDS011;3433;48.730;9.108;2022-10-15T00:27:55;1.87;;;0.60;;
6791;SDS011;3433;48.730;9.108;2022-10-15T00:30:43;0.70;;;0.60;;
6791;SDS011;3433;48.730;9.108;2022-10-15T00:33:30;0.50;;;0.50;;
6791;SDS011;3433;48.730;9.108;2022-10-15T00:36:18;1.23;;;0.60;;
6791;SDS011;3433;48.730;9.108;2022-10-15T00:39:09;0.90;;;0.80;;
6791;SDS011;3433;48.730;9.108;2022-10-15T00:41:56;2.30;;;0.60;;
6791;SDS011;3433;48.730;9.108;2022-10-15T00:44:51;1.00;;;0.60;;
6791;SDS011;3433;48.730;9.108;2022-10-15T00:47:41;1.03;;;0.50;;
6791;SDS011;3433;48.730;9.108;2022-10-15T00:50:31;1.37;;;0.60;;
6791;SDS011;3433;48.730;9.108;2022-10-15T00:53:19;2.10;;;0.63;;
6791;SDS011;3433;48.730;9.108;2022-10-15T00:56:08;0.70;;;0.60;;
6791;SDS011;3433;48.730;9.108;2022-10-15T00:58:55;0.70;;;0.50;;
6791;SDS011;3433;48.730;9.108;2022-10-15T01:01:43;1.23;;;0.60;;
6791;SDS011;3433;48.730;9.108;2022-10-15T01:04:30;0.60;;;0.50;;
6791;SDS011;3433;48.730;9.108;2022-10-15T01:07:18;2.13;;;0.70;;
6791;SDS011;3433;48.730;9.108;2022-10-15T01:10:06;0.60;;;0.60;;
6791;SDS011;3433;48.730;9.108;2022-10-15T01:12:58;0.90;;;0.50;;
6791;SDS011;3433;48.730;9.108;2022-10-15T01:15:53;0.80;;;0.60;;
6791;SDS011;3433;48.730;9.108;2022-10-15T01:18:46;0.83;;;0.70;;
6791;SDS011;3433;48.730;9.108;2022-10-15T01:21:40;1.00;;;0.60;;
6791;SDS011;3433;48.730;9.108;2022-10-15T01:24:43;0.60;;;0.50;;
6791;SDS011;3433;48.730;9.108;2022-10-15T01:27:40;1.90;;;0.60;;
6791;SDS011;3433;48.730;9.108;2022-10-15T01:30:32;0.90;;;0.40;;
6791;SDS011;3433;48.730;9.108;2022-10-15T01:33:26;1.10;;;0.60;;
6791;SDS011;3433;48.730;9.108;2022-10-15T01:36:21;1.13;;;0.43;;
6791;SDS011;3433;48.730;9.108;2022-10-15T01:39:15;1.10;;;0.60;;
6791;SDS011;3433;48.730;9.108;2022-10-15T01:42:10;0.93;;;0.83;;
6791;SDS011;3433;48.730;9.108;2022-10-15T01:45:04;0.70;;;0.70;;
6791;SDS011;3433;48.730;9.108;2022-10-15T01:47:55;0.70;;;0.60;;
6791;SDS011;3433;48.730;9.108;2022-10-15T01:50:45;2.17;;;0.80;;
6791;SDS011;3433;48.730;9.108;2022-10-15T01:53:36;3.90;;;0.60;;
6791;SDS011;3433;48.730;9.108;2022-10-15T01:56:25;0.77;;;0.60;;
6791;SDS011;3433;48.730;9.108;2022-10-15T01:59:15;0.67;;;0.50;;
6791;SDS011;3433;48.730;9.108;2022-10-15T02:02:04;0.70;;;0.60;;
6791;SDS011;3433;48.730;9.108;2022-10-15T02:04:53;1.63;;;0.60;;
6791;SDS011;3433;48.730;9.108;2022-10-15T02:07:43;0.70;;;0.60;;
6791;SDS011;3433;48.730;9.108;2022-10-15T02:10:37;3.80;;;0.50;;
6791;SDS011;3433;48.730;9.108;2022-10-15T02:13:34;1.53;;;0.60;;
6791;SDS011;3433;48.730;9.108;2022-10-15T02:16:36;0.60;;;0.60;;
6791;SDS011;3433;48.730;9.108;2022-10-15T02:19:28;0.67;;;0.60;;
6791;SDS011;3433;48.730;9.108;2022-10-15T02:22:20;0.63;;;0.50;;
6791;SDS011;3433;48.730;9.108;2022-10-15T02:25:13;1.17;;;0.83;;
6791;SDS011;3433;48.730;9.108;2022-10-15T02:28:04;1.00;;;0.60;;
6791;SDS011;3433;48.730;9.108;2022-10-15T02:30:51;2.00;;;0.50;;
6791;SDS011;3433;48.730;9.108;2022-10-15T02:33:42;1.47;;;0.43;;
6791;SDS011;3433;48.730;9.108;2022-10-15T02:36:31;0.60;;;0.50;;
6791;SDS011;3433;48.730;9.108;2022-10-15T02:39:21;0.80;;;0.60;;
6791;SDS011;3433;48.730;9.108;2022-10-15T02:42:09;0.57;;;0.50;;
6791;SDS011;3433;48.730;9.108;2022-10-15T02:44:57;2.23;;;0.70;;
6791;SDS011;3433;48.730;9.108;2022-10-15T02:47:44;0.73;;;0.50;;
6791;SDS011;3433;48.730;9.108;2022-10-15T02:50:31;2.20;;;0.40;;
6791;SDS011;3433;48.730;9.108;2022-10-15T02:53:19;2.70;;;0.40;;
6791;SDS011;3433;48.730;9.108;2022-10-15T02:56:07;1.10;;;0.53;;
6791;SDS011;3433;48.730;9.108;2022-10-15T02:58:54;1.40;;;0.50;;
6791;SDS011;3433;48.730;9.108;2022-10-15T03:01:42;1.43;;;0.50;;
6791;SDS011;3433;48.730;9.108;2022-10-15T03:04:29;0.70;;;0.50;;
6791;SDS011;3433;48.730;9.108;2022-10-15T03:07:16;0.70;;;0.53;;
6791;SDS011;3433;48.730;9.108;2022-10-15T03:10:04;0.50;;;0.40;;
6791;SDS011;3433;48.730;9.108;2022-10-15T03:12:53;1.50;;;0.50;;
6791;SDS011;3433;48.730;9.108;2022-10-15T03:15:40;1.77;;;0.50;;
6791;SDS011;3433;48.730;9.108;2022-10-15T03:18:27;0.90;;;0.47;;
6791;SDS011;3433;48.730;9.108;2022-10-15T03:21:15;0.50;;;0.40;;
6791;SDS011;3433;48.730;9.108;2022-10-15T03:24:02;0.80;;;0.40;;
6791;SDS011;3433;48.730;9.108;2022-10-15T03:26:49;0.80;;;0.50;;
6791;SDS011;3433;48.730;9.108;2022-10-15T03:29:38;1.47;;;0.50;;
6791;SDS011;3433;48.730;9.108;2022-10-15T03:32:25;0.60;;;0.50;;
6791;SDS011;3433;48.730;9.108;2022-10-15T03:35:12;0.60;;;0.50;;
6791;SDS011;3433;48.730;9.108;2022-10-15T03:38:00;1.07;;;0.40;;
6791;SDS011;3433;48.730;9.108;2022-10-15T03:40:47;0.60;;;0.40;;
6791;SDS011;3433;48.730;9.108;2022-10-15T03:43:34;0.50;;;0.40;;
6791;SDS011;3433;48.730;9.108;2022-10-15T03:46:23;0.70;;;0.50;;
6791;SDS011;3433;48.730;9.108;2022-10-15T03:49:10;0.80;;;0.53;;
6791;SDS011;3433;48.730;9.108;2022-10-15T03:51:57;0.60;;;0.50;;
6791;SDS011;3433;48.730;9.108;2022-10-15T03:54:44;0.73;;;0.50;;
6791;SDS011;3433;48.730;9.108;2022-10-15T03:57:32;1.13;;;0.40;;
6791;SDS011;3433;48.730;9.108;2022-10-15T04:00:19;0.60;;;0.40;;
6791;SDS011;3433;48.730;9.108;2022-10-15T04:03:08;3.03;;;0.77;;
6791;SDS011;3433;48.730;9.108;2022-10-15T04:05:55;0.70;;;0.40;;
6791;SDS011;3433;48.730;9.108;2022-10-15T04:08:42;0.80;;;0.60;;
6791;SDS011;3433;48.730;9.108;2022-10-15T04:11:29;0.60;;;0.50;;
6791;SDS011;3433;48.730;9.108;2022-10-15T04:14:17;0.70;;;0.50;;
6791;SDS011;3433;48.730;9.108;2022-10-15T04:17:04;0.70;;;0.47;;
6791;SDS011;3433;48.730;9.108;2022-10-15T04:19:53;0.50;;;0.40;;
6791;SDS011;3433;48.730;9.108;2022-10-15T04:22:40;0.70;;;0.40;;
6791;SDS011;3433;48.730;9.108;2022-10-15T04:25:27;0.73;;;0.40;;
6791;SDS011;3433;48.730;9.108;2022-10-15T04:28:15;0.80;;;0.43;;
6791;SDS011;3433;48.730;9.108;2022-10-15T04:31:02;0.50;;;0.40;;
6791;SDS011;3433;48.730;9.108;2022-10-15T04:33:50;0.60;;;0.40;;
6791;SDS011;3433;48.730;9.108;2022-10-15T04:36:38;0.73;;;0.40;;
6791;SDS011;3433;48.730;9.108;2022-10-15T04:39:25;0.83;;;0.47;;
6791;SDS011;3433;48.730;9.108;2022-10-15T04:42:12;1.17;;;0.40;;
6791;SDS011;3433;48.730;9.108;2022-10-15T04:45:00;1.17;;;0.40;;
6791;SDS011;3433;48.730;9.108;2022-10-15T04:47:47;1.33;;;0.50;;
6791;SDS011;3433;48.730;9.108;2022-10-15T04:50:34;0.60;;;0.40;;
6791;SDS011;3433;48.730;9.108;2022-10-15T04:53:23;0.50;;;0.40;;
6791;SDS011;3433;48.730;9.108;2022-10-15T04:56:10;2.20;;;0.40;;
6791;SDS011;3433;48.730;9.108;2022-10-15T04:58:59;1.70;;;0.40;;
6791;SDS011;3433;48.730;9.108;2022-10-15T05:01:47;0.50;;;0.40;;
6791;SDS011;3433;48.730;9.108;2022-10-15T05:04:34;1.07;;;0.43;;
6791;SDS011;3433;48.730;9.108;2022-10-15T05:07:21;0.60;;;0.40;;
6791;SDS011;3433;48.730;9.108;2022-10-15T05:10:10;0.53;;;0.47;;
6791;SDS011;3433;48.730;9.108;2022-10-15T05:12:57;0.50;;;0.40;;
6791;SDS011;3433;48.730;9.108;2022-10-15T05:15:44;0.50;;;0.40;;
6791;SDS011;3433;48.730;9.108;2022-10-15T05:18:31;1.80;;;0.50;;
6791;SDS011;3433;48.730;9.108;2022-10-15T05:21:19;0.50;;;0.40;;
6791;SDS011;3433;48.730;9.108;2022-10-15T05:24:06;0.90;;;0.50;;
6791;SDS011;3433;48.730;9.108;2022-10-15T05:29:21;0.70;;;0.50;;
6791;SDS011;3433;48.730;9.108;2022-10-15T05:32:08;0.60;;;0.40;;
6791;SDS011;3433;48.730;9.108;2022-10-15T05:34:56;0.60;;;0.50;;
6791;SDS011;3433;48.730;9.108;2022-10-15T05:37:43;0.60;;;0.50;;
6791;SDS011;3433;48.730;9.108;2022-10-15T05:40:30;0.60;;;0.50;;
6791;SDS011;3433;48.730;9.108;2022-10-15T05:43:17;1.27;;;0.50;;
6791;SDS011;3433;48.730;9.108;2022-10-15T05:46:06;1.03;;;0.50;;
6791;SDS011;3433;48.730;9.108;2022-10-15T05:48:54;0.60;;;0.50;;
6791;SDS011;3433;48.730;9.108;2022-10-15T05:51:43;0.97;;;0.40;;
6791;SDS011;3433;48.730;9.108;2022-10-15T05:54:30;2.30;;;0.50;;
6791;SDS011;3433;48.730;9.108;2022-10-15T05:57:17;0.63;;;0.50;;
6791;SDS011;3433;48.730;9.108;2022-10-15T06:00:05;0.80;;;0.60;;
6791;SDS011;3433;48.730;9.108;2022-10-15T06:02:55;0.60;;;0.60;;
6791;SDS011;3433;48.730;9.108;2022-10-15T06:05:42;1.47;;;0.70;;
6791;SDS011;3433;48.730;9.108;2022-10-15T06:08:29;2.00;;;0.60;;
6791;SDS011;3433;48.730;9.108;2022-10-15T06:11:17;1.00;;;0.60;;
6791;SDS011;3433;48.730;9.108;2022-10-15T06:14:04;1.20;;;0.70;;
6791;SDS011;3433;48.730;9.108;2022-10-15T06:16:52;0.77;;;0.60;;
6791;SDS011;3433;48.730;9.108;2022-10-15T06:19:40;1.47;;;0.60;;
6791;SDS011;3433;48.730;9.108;2022-10-15T06:22:29;2.40;;;0.83;;
6791;SDS011;3433;48.730;9.108;2022-10-15T06:25:16;3.27;;;1.70;;
6791;SDS011;3433;48.730;9.108;2022-10-15T06:28:04;2.20;;;1.13;;
6791;SDS011;3433;48.730;9.108;2022-10-15T06:30:56;1.77;;;0.80;;
6791;SDS011;3433;48.730;9.108;2022-10-15T06:33:43;0.83;;;0.67;;
6791;SDS011;3433;48.730;9.108;2022-10-15T06:36:32;1.10;;;0.80;;
6791;SDS011;3433;48.730;9.108;2022-10-15T06:39:19;6.70;;;0.87;;
6791;SDS011;3433;48.730;9.108;2022-10-15T06:42:06;1.10;;;1.00;;
6791;SDS011;3433;48.730;9.108;2022-10-15T06:44:53;2.30;;;0.90;;
6791;SDS011;3433;48.730;9.108;2022-10-15T06:47:41;3.83;;;1.30;;
6791;SDS011;3433;48.730;9.108;2022-10-15T06:50:28;2.83;;;0.97;;
6791;SDS011;3433;48.730;9.108;2022-10-15T06:53:16;1.07;;;0.97;;
6791;SDS011;3433;48.730;9.108;2022-10-15T06:56:04;1.10;;;0.90;;
6791;SDS011;3433;48.730;9.108;2022-10-15T06:58:51;0.80;;;0.70;;
6791;SDS011;3433;48.730;9.108;2022-10-15T07:01:38;0.87;;;0.60;;
6791;SDS011;3433;48.730;9.108;2022-10-15T07:04:26;1.10;;;0.60;;
6791;SDS011;3433;48.730;9.108;2022-10-15T07:07:13;0.70;;;0.60;;
6791;SDS011;3433;48.730;9.108;2022-10-15T07:10:02;0.90;;;0.80;;
6791;SDS011;3433;48.730;9.108;2022-10-15T07:12:50;1.07;;;0.83;;
6791;SDS011;3433;48.730;9.108;2022-10-15T07:15:38;0.80;;;0.70;;
6791;SDS011;3433;48.730;9.108;2022-10-15T07:18:25;0.80;;;0.77;;
6791;SDS011;3433;48.730;9.108;2022-10-15T07:21:12;1.20;;;0.90;;
6791;SDS011;3433;48.730;9.108;2022-10-15T07:24:00;1.10;;;0.80;;
6791;SDS011;3433;48.730;9.108;2022-10-15T07:26:48;1.00;;;0.70;;
6791;SDS011;3433;48.730;9.108;2022-10-15T07:29:36;1.10;;;0.67;;
6791;SDS011;3433;48.730;9.108;2022-10-15T07:32:23;4.73;;;0.80;;
6791;SDS011;3433;48.730;9.108;2022-10-15T07:35:10;1.70;;;0.60;;
6791;SDS011;3433;48.730;9.108;2022-10-15T07:37:59;0.90;;;0.80;;
6791;SDS011;3433;48.730;9.108;2022-10-15T07:40:47;2.97;;;0.80;;
6791;SDS011;3433;48.730;9.108;2022-10-15T07:43:35;2.20;;;0.97;;
6791;SDS011;3433;48.730;9.108;2022-10-15T07:46:23;4.90;;;1.33;;
6791;SDS011;3433;48.730;9.108;2022-10-15T07:49:10;1.80;;;1.47;;
6791;SDS011;3433;48.730;9.108;2022-10-15T07:51:58;2.50;;;1.77;;
6791;SDS011;3433;48.730;9.108;2022-10-15T07:54:45;3.27;;;1.70;;
6791;SDS011;3433;48.730;9.108;2022-10-15T07:57:32;2.50;;;0.80;;
6791;SDS011;3433;48.730;9.108;2022-10-15T08:00:21;3.43;;;1.40;;
6791;SDS011;3433;48.730;9.108;2022-10-15T08:03:08;0.90;;;0.80;;
6791;SDS011;3433;48.730;9.108;2022-10-15T08:05:55;3.27;;;0.90;;
6791;SDS011;3433;48.730;9.108;2022-10-15T08:08:45;2.30;;;0.90;;
6791;SDS011;3433;48.730;9.108;2022-10-15T08:11:33;1.23;;;1.03;;
6791;SDS011;3433;48.730;9.108;2022-10-15T08:14:20;1.37;;;0.90;;
6791;SDS011;3433;48.730;9.108;2022-10-15T08:17:08;1.90;;;0.63;;
6791;SDS011;3433;48.730;9.108;2022-10-15T08:19:56;0.77;;;0.60;;
6791;SDS011;3433;48.730;9.108;2022-10-15T08:22:43;0.60;;;0.60;;
6791;SDS011;3433;48.730;9.108;2022-10-15T08:25:30;0.70;;;0.60;;
6791;SDS011;3433;48.730;9.108;2022-10-15T08:28:18;0.60;;;0.60;;
6791;SDS011;3433;48.730;9.108;2022-10-15T08:31:05;0.67;;;0.50;;
6791;SDS011;3433;48.730;9.108;2022-10-15T08:33:53;2.03;;;0.60;;
6791;SDS011;3433;48.730;9.108;2022-10-15T08:36:41;1.70;;;0.60;;
6791;SDS011;3433;48.730;9.108;2022-10-15T08:39:28;0.90;;;0.80;;
6791;SDS011;3433;48.730;9.108;2022-10-15T08:42:17;1.63;;;0.90;;
6791;SDS011;3433;48.730;9.108;2022-10-15T08:45:10;1.03;;;0.93;;
6791;SDS011;3433;48.730;9.108;2022-10-15T08:48:01;0.70;;;0.57;;
6791;SDS011;3433;48.730;9.108;2022-10-15T08:50:54;1.00;;;0.80;;
6791;SDS011;3433;48.730;9.108;2022-10-15T08:53:46;1.37;;;1.10;;
6791;SDS011;3433;48.730;9.108;2022-10-15T08:56:36;0.80;;;0.70;;
6791;SDS011;3433;48.730;9.108;2022-10-15T08:59:27;0.60;;;0.60;;
6791;SDS011;3433;48.730;9.108;2022-10-15T09:02:20;0.70;;;0.57;;
6791;SDS011;3433;48.730;9.108;2022-10-15T09:05:18;0.63;;;0.63;;
6791;SDS011;3433;48.730;9.108;2022-10-15T09:08:16;0.90;;;0.70;;
6791;SDS011;3433;48.730;9.108;2022-10-15T09:11:11;4.57;;;1.70;;
6791;SDS011;3433;48.730;9.108;2022-10-15T09:14:02;1.60;;;0.70;;
6791;SDS011;3433;48.730;9.108;2022-10-15T09:16:53;1.47;;;0.80;;
6791;SDS011;3433;48.730;9.108;2022-10-15T09:19:20;3.70;;;0.80;;
6791;SDS011;3433;48.730;9.108;2022-10-15T09:21:49;1.23;;;0.70;;
6791;SDS011;3433;48.730;9.108;2022-10-15T09:24:19;1.10;;;0.60;;
6791;SDS011;3433;48.730;9.108;2022-10-15T09:26:53;0.70;;;0.60;;
6791;SDS011;3433;48.730;9.108;2022-10-15T09:29:29;2.60;;;0.90;;
6791;SDS011;3433;48.730;9.108;2022-10-15T09:32:03;0.60;;;0.50;;
6791;SDS011;3433;48.730;9.108;2022-10-15T09:34:36;1.20;;;0.60;;
6791;SDS011;3433;48.730;9.108;2022-10-15T09:37:10;2.20;;;0.50;;
6791;SDS011;3433;48.730;9.108;2022-10-15T09:39:52;0.60;;;0.50;;
6791;SDS011;3433;48.730;9.108;2022-10-15T09:42:28;0.60;;;0.50;;
6791;SDS011;3433;48.730;9.108;2022-10-15T09:44:59;0.60;;;0.43;;
6791;SDS011;3433;48.730;9.108;2022-10-15T09:47:30;1.57;;;0.50;;
6791;SDS011;3433;48.730;9.108;2022-10-15T09:49:59;1.47;;;0.50;;
6791;SDS011;3433;48.730;9.108;2022-10-15T09:52:30;0.90;;;0.80;;
6791;SDS011;3433;48.730;9.108;2022-10-15T09:55:11;0.60;;;0.50;;
6791;SDS011;3433;48.730;9.108;2022-10-15T09:57:49;0.60;;;0.50;;
6791;SDS011;3433;48.730;9.108;2022-10-15T10:00:18;0.77;;;0.57;;
6791;SDS011;3433;48.730;9.108;2022-10-15T10:02:49;0.70;;;0.50;;
6791;SDS011;3433;48.730;9.108;2022-10-15T10:05:31;0.90;;;0.60;;
6791;SDS011;3433;48.730;9.108;2022-10-15T10:08:07;0.80;;;0.70;;
6791;SDS011;3433;48.730;9.108;2022-10-15T10:10:37;0.93;;;0.80;;
6791;SDS011;3433;48.730;9.108;2022-10-15T10:13:04;1.53;;;0.70;;
6791;SDS011;3433;48.730;9.108;2022-10-15T10:15:47;0.90;;;0.77;;
6791;SDS011;3433;48.730;9.108;2022-10-15T10:18:17;0.80;;;0.70;;
6791;SDS011;3433;48.730;9.108;2022-10-15T10:20:51;2.80;;;0.90;;
6791;SDS011;3433;48.730;9.108;2022-10-15T10:23:22;2.80;;;1.03;;
6791;SDS011;3433;48.730;9.108;2022-10-15T10:25:53;0.80;;;0.60;;
6791;SDS011;3433;48.730;9.108;2022-10-15T10:28:24;1.17;;;0.77;;
6791;SDS011;3433;48.730;9.108;2022-10-15T10:30:59;1.23;;;0.80;;
6791;SDS011;3433;48.730;9.108;2022-10-15T10:33:29;1.00;;;0.70;;
6791;SDS011;3433;48.730;9.108;2022-10-15T10:35:59;3.57;;;0.77;;
6791;SDS011;3433;48.730;9.108;2022-10-15T10:38:28;1.30;;;0.83;;
6791;SDS011;3433;48.730;9.108;2022-10-15T10:40:59;1.03;;;0.70;;
6791;SDS011;3433;48.730;9.108;2022-10-15T10:43:31;1.80;;;1.00;;
6791;SDS011;3433;48.730;9.108;2022-10-15T10:46:00;1.57;;;0.90;;
6791;SDS011;3433;48.730;9.108;2022-10-15T10:48:36;0.70;;;0.70;;
6791;SDS011;3433;48.730;9.108;2022-10-15T10:51:11;2.60;;;0.90;;
6791;SDS011;3433;48.730;9.108;2022-10-15T10:53:43;0.70;;;0.70;;
6791;SDS011;3433;48.730;9.108;2022-10-15T10:56:15;3.20;;;1.43;;
6791;SDS011;3433;48.730;9.108;2022-10-15T10:58:43;1.37;;;0.90;;
6791;SDS011;3433;48.730;9.108;2022-10-15T11:01:11;1.20;;;0.80;;
6791;SDS011;3433;48.730;9.108;2022-10-15T11:03:39;1.20;;;0.80;;
6791;SDS011;3433;48.730;9.108;2022-10-15T11:09:19;2.67;;;1.00;;
6791;SDS011;3433;48.730;9.108;2022-10-15T11:12:05;1.00;;;0.73;;
6791;SDS011;3433;48.730;9.108;2022-10-15T11:14:53;2.90;;;1.10;;
6791;SDS011;3433;48.730;9.108;2022-10-15T11:17:25;1.70;;;0.73;;
6791;SDS011;3433;48.730;9.108;2022-10-15T11:20:01;1.20;;;0.70;;
6791;SDS011;3433;48.730;9.108;2022-10-15T11:22:37;1.20;;;1.10;;
6791;SDS011;3433;48.730;9.108;2022-10-15T11:25:16;1.10;;;0.77;;
6791;SDS011;3433;48.730;9.108;2022-10-15T11:28:04;1.93;;;0.73;;
6791;SDS011;3433;48.730;9.108;2022-10-15T11:30:45;1.83;;;0.80;;
6791;SDS011;3433;48.730;9.108;2022-10-15T11:33:26;1.30;;;0.90;;
6791;SDS011;3433;48.730;9.108;2022-10-15T11:36:03;3.30;;;0.90;;
6791;SDS011;3433;48.730;9.108;2022-10-15T11:38:47;2.40;;;1.07;;
6791;SDS011;3433;48.730;9.108;2022-10-15T11:41:26;1.23;;;0.80;;
6791;SDS011;3433;48.730;9.108;2022-10-15T11:44:13;0.97;;;0.80;;
6791;SDS011;3433;48.730;9.108;2022-10-15T11:46:53;0.90;;;0.70;;
6791;SDS011;3433;48.730;9.108;2022-10-15T11:49:30;1.30;;;0.60;;
6791;SDS011;3433;48.730;9.108;2022-10-15T11:52:23;1.80;;;0.77;;
6791;SDS011;3433;48.730;9.108;2022-10-15T11:55:06;1.17;;;0.73;;
6791;SDS011;3433;48.730;9.108;2022-10-15T11:57:39;1.10;;;0.70;;
6791;SDS011;3433;48.730;9.108;2022-10-15T12:00:11;1.77;;;0.80;;
6791;SDS011;3433;48.730;9.108;2022-10-15T12:02:48;0.90;;;0.70;;
6791;SDS011;3433;48.730;9.108;2022-10-15T12:05:19;0.80;;;0.77;;
6791;SDS011;3433;48.730;9.108;2022-10-15T12:07:58;1.67;;;0.70;;
6791;SDS011;3433;48.730;9.108;2022-10-15T12:10:32;1.27;;;0.80;;
6791;SDS011;3433;48.730;9.108;2022-10-15T12:13:14;0.97;;;0.60;;
6791;SDS011;3433;48.730;9.108;2022-10-15T12:15:51;1.40;;;0.70;;
6791;SDS011;3433;48.730;9.108;2022-10-15T12:18:30;2.67;;;1.00;;
6791;SDS011;3433;48.730;9.108;2022-10-15T12:21:02;1.87;;;0.90;;
6791;SDS011;3433;48.730;9.108;2022-10-15T12:23:38;3.20;;;0.90;;
6791;SDS011;3433;48.730;9.108;2022-10-15T12:29:17;3.53;;;0.60;;
6791;SDS011;3433;48.730;9.108;2022-10-15T12:31:49;1.37;;;0.60;;
6791;SDS011;3433;48.730;9.108;2022-10-15T12:34:23;3.40;;;0.87;;
6791;SDS011;3433;48.730;9.108;2022-10-15T12:37:00;0.80;;;0.60;;
6791;SDS011;3433;48.730;9.108;2022-10-15T12:39:29;0.80;;;0.80;;
6791;SDS011;3433;48.730;9.108;2022-10-15T12:41:57;2.07;;;0.67;;
6791;SDS011;3433;48.730;9.108;2022-10-15T12:44:25;1.03;;;0.77;;
6791;SDS011;3433;48.730;9.108;2022-10-15T12:46:56;1.30;;;0.77;;
6791;SDS011;3433;48.730;9.108;2022-10-15T12:55:21;1.30;;;1.20;;
6791;SDS011;3433;48.730;9.108;2022-10-15T12:57:51;4.77;;;1.33;;
6791;SDS011;3433;48.730;9.108;2022-10-15T13:00:27;3.27;;;1.70;;
6791;SDS011;3433;48.730;9.108;2022-10-15T13:03:09;3.80;;;1.40;;
6791;SDS011;3433;48.730;9.108;2022-10-15T13:05:40;4.17;;;1.17;;
6791;SDS011;3433;48.730;9.108;2022-10-15T13:08:11;2.17;;;0.83;;
6791;SDS011;3433;48.730;9.108;2022-10-15T13:10:44;1.50;;;0.90;;
6791;SDS011;3433;48.730;9.108;2022-10-15T13:13:15;1.00;;;0.80;;
6791;SDS011;3433;48.730;9.108;2022-10-15T13:15:50;0.90;;;0.77;;
6791;SDS011;3433;48.730;9.108;2022-10-15T13:18:21;3.27;;;0.90;;
6791;SDS011;3433;48.730;9.108;2022-10-15T13:20:49;1.43;;;0.73;;
6791;SDS011;3433;48.730;9.108;2022-10-15T13:23:20;2.33;;;1.67;;
6791;SDS011;3433;48.730;9.108;2022-10-15T13:25:52;1.63;;;0.90;;
6791;SDS011;3433;48.730;9.108;2022-10-15T13:28:36;5.77;;;0.90;;
6791;SDS011;3433;48.730;9.108;2022-10-15T13:31:06;1.63;;;1.03;;
6791;SDS011;3433;48.730;9.108;2022-10-15T13:33:41;1.83;;;1.10;;
6791;SDS011;3433;48.730;9.108;2022-10-15T13:36:12;0.87;;;0.80;;
6791;SDS011;3433;48.730;9.108;2022-10-15T13:38:44;1.37;;;0.90;;
6791;SDS011;3433;48.730;9.108;2022-10-15T13:41:21;3.27;;;1.10;;
6791;SDS011;3433;48.730;9.108;2022-10-15T13:43:50;2.97;;;0.90;;
6791;SDS011;3433;48.730;9.108;2022-10-15T13:46:19;1.93;;;1.17;;
6791;SDS011;3433;48.730;9.108;2022-10-15T13:48:51;1.43;;;0.87;;
6791;SDS011;3433;48.730;9.108;2022-10-15T13:51:22;4.50;;;1.50;;
6791;SDS011;3433;48.730;9.108;2022-10-15T13:53:52;6.60;;;1.10;;
6791;SDS011;3433;48.730;9.108;2022-10-15T13:56:22;1.63;;;1.10;;
6791;SDS011;3433;48.730;9.108;2022-10-15T13:58:51;1.50;;;1.40;;
6791;SDS011;3433;48.730;9.108;2022-10-15T14:01:20;4.00;;;0.80;;
6791;SDS011;3433;48.730;9.108;2022-10-15T14:03:50;1.10;;;0.90;;
6791;SDS011;3433;48.730;9.108;2022-10-15T14:06:18;1.50;;;1.00;;
6791;SDS011;3433;48.730;9.108;2022-10-15T14:08:46;1.87;;;1.00;;
6791;SDS011;3433;48.730;9.108;2022-10-15T14:11:15;2.63;;;1.30;;
6791;SDS011;3433;48.730;9.108;2022-10-15T14:13:43;3.63;;;1.60;;
6791;SDS011;3433;48.730;9.108;2022-10-15T14:16:11;1.57;;;0.90;;
6791;SDS011;3433;48.730;9.108;2022-10-15T14:18:44;4.13;;;1.20;;
6791;SDS011;3433;48.730;9.108;2022-10-15T14:21:14;2.60;;;1.27;;
6791;SDS011;3433;48.730;9.108;2022-10-15T14:23:44;3.80;;;1.30;;
6791;SDS011;3433;48.730;9.108;2022-10-15T14:26:12;1.83;;;1.17;;
6791;SDS011;3433;48.730;9.108;2022-10-15T14:28:41;2.30;;;0.87;;
6791;SDS011;3433;48.730;9.108;2022-10-15T14:31:22;1.20;;;1.10;;
6791;SDS011;3433;48.730;9.108;2022-10-15T14:34:03;2.10;;;1.00;;
6791;SDS011;3433;48.730;9.108;2022-10-15T14:36:39;1.00;;;0.70;;
6791;SDS011;3433;48.730;9.108;2022-10-15T14:39:21;3.80;;;1.70;;
6791;SDS011;3433;48.730;9.108;2022-10-15T14:41:56;1.63;;;1.10;;
6791;SDS011;3433;48.730;9.108;2022-10-15T14:44:24;2.90;;;1.00;;
6791;SDS011;3433;48.730;9.108;2022-10-15T14:46:51;1.10;;;0.70;;
6791;SDS011;3433;48.730;9.108;2022-10-15T14:49:25;3.57;;;0.80;;
6791;SDS011;3433;48.730;9.108;2022-10-15T14:51:58;2.63;;;1.50;;
6791;SDS011;3433;48.730;9.108;2022-10-15T14:54:33;2.97;;;1.23;;
6791;SDS011;3433;48.730;9.108;2022-10-15T14:57:03;1.37;;;0.70;;
6791;SDS011;3433;48.730;9.108;2022-10-15T14:59:37;1.50;;;1.10;;
6791;SDS011;3433;48.730;9.108;2022-10-15T15:02:05;1.97;;;1.03;;
6791;SDS011;3433;48.730;9.108;2022-10-15T15:04:40;1.43;;;0.70;;
6791;SDS011;3433;48.730;9.108;2022-10-15T15:07:13;1.63;;;1.00;;
6791;SDS011;3433;48.730;9.108;2022-10-15T15:09:42;0.90;;;0.80;;
6791;SDS011;3433;48.730;9.108;2022-10-15T15:12:14;5.03;;;0.90;;
6791;SDS011;3433;48.730;9.108;2022-10-15T15:14:46;4.73;;;1.17;;
6791;SDS011;3433;48.730;9.108;2022-10-15T15:17:14;1.73;;;1.20;;
6791;SDS011;3433;48.730;9.108;2022-10-15T15:19:44;0.80;;;0.80;;
6791;SDS011;3433;48.730;9.108;2022-10-15T15:22:13;1.13;;;0.90;;
6791;SDS011;3433;48.730;9.108;2022-10-15T15:24:43;1.43;;;0.80;;
6791;SDS011;3433;48.730;9.108;2022-10-15T15:27:17;1.10;;;0.80;;
6791;SDS011;3433;48.730;9.108;2022-10-15T15:29:48;1.70;;;1.10;;
6791;SDS011;3433;48.730;9.108;2022-10-15T15:32:15;1.50;;;1.00;;
6791;SDS011;3433;48.730;9.108;2022-10-15T15:34:43;1.40;;;0.80;;
6791;SDS011;3433;48.730;9.108;2022-10-15T15:37:15;1.70;;;1.43;;
6791;SDS011;3433;48.730;9.108;2022-10-15T15:39:43;2.40;;;1.20;;
6791;SDS011;3433;48.730;9.108;2022-10-15T15:42:11;2.00;;;1.00;;
6791;SDS011;3433;48.730;9.108;2022-10-15T15:44:39;2.70;;;0.90;;
6791;SDS011;3433;48.730;9.108;2022-10-15T15:47:06;0.80;;;0.80;;
6791;SDS011;3433;48.730;9.108;2022-10-15T15:49:33;4.67;;;1.00;;
6791;SDS011;3433;48.730;9.108;2022-10-15T15:52:01;3.53;;;0.90;;
6791;SDS011;3433;48.730;9.108;2022-10-15T15:54:30;1.60;;;0.60;;
6791;SDS011;3433;48.730;9.108;2022-10-15T15:56:57;1.10;;;0.83;;
6791;SDS011;3433;48.730;9.108;2022-10-15T15:59:24;3.93;;;1.27;;
6791;SDS011;3433;48.730;9.108;2022-10-15T16:01:50;1.23;;;0.80;;
6791;SDS011;3433;48.730;9.108;2022-10-15T16:04:18;4.20;;;0.70;;
6791;SDS011;3433;48.730;9.108;2022-10-15T16:06:45;1.77;;;0.70;;
6791;SDS011;3433;48.730;9.108;2022-10-15T16:09:13;2.00;;;0.83;;
6791;SDS011;3433;48.730;9.108;2022-10-15T16:11:42;1.07;;;0.87;;
6791;SDS011;3433;48.730;9.108;2022-10-15T16:14:09;3.33;;;0.87;;
6791;SDS011;3433;48.730;9.108;2022-10-15T16:16:36;1.53;;;1.30;;
6791;SDS011;3433;48.730;9.108;2022-10-15T16:19:03;1.27;;;1.17;;
6791;SDS011;3433;48.730;9.108;2022-10-15T16:21:30;2.00;;;1.17;;
6791;SDS011;3433;48.730;9.108;2022-10-15T16:23:58;2.93;;;1.10;;
6791;SDS011;3433;48.730;9.108;2022-10-15T16:26:25;1.77;;;0.83;;
6791;SDS011;3433;48.730;9.108;2022-10-15T16:28:53;2.20;;;0.93;;
6791;SDS011;3433;48.730;9.108;2022-10-15T16:31:20;2.30;;;0.80;;
6791;SDS011;3433;48.730;9.108;2022-10-15T16:33:48;1.40;;;1.03;;
6791;SDS011;3433;48.730;9.108;2022-10-15T16:36:15;1.10;;;0.90;;
6791;SDS011;3433;48.730;9.108;2022-10-15T16:38:43;2.40;;;1.10;;
6791;SDS011;3433;48.730;9.108;2022-10-15T16:41:11;1.00;;;0.90;;
6791;SDS011;3433;48.730;9.108;2022-10-15T16:43:39;1.30;;;1.00;;
6791;SDS011;3433;48.730;9.108;2022-10-15T16:46:08;7.90;;;1.00;;
6791;SDS011;3433;48.730;9.108;2022-10-15T16:48:34;1.97;;;1.20;;
6791;SDS011;3433;48.730;9.108;2022-10-15T16:51:02;2.63;;;1.20;;
6791;SDS011;3433;48.730;9.108;2022-10-15T16:53:30;1.50;;;0.90;;
6791;SDS011;3433;48.730;9.108;2022-10-15T16:55:58;3.33;;;1.30;;